Time;durP1;ratioP1;P1;durP2;ratioP2;P2;SDS_P1;SDS_P2;PMS_P1;PMS_P2;Temp;Humidity;BMP_temperature;BMP_pressure;BME280_temperature;BME280_humidity;BME280_pressure;Samples;Min_cycle;Max_cycle;Signal;HPM_P1;HPM_P2
2021/11/23 00:00:37;;;;;;;3.70;1.90;;;17.70;59.60;;;;;;5027423;28;20045;-61
2021/11/23 00:03:03;;;;;;;3.60;1.90;;;17.80;59.60;;;;;;5027763;28;20083;-61
2021/11/23 00:05:29;;;;;;;3.00;1.85;;;17.70;59.60;;;;;;5027799;28;20026;-61
2021/11/23 00:07:54;;;;;;;3.72;2.03;;;17.80;59.40;;;;;;5010048;28;20557;-61
2021/11/23 00:10:20;;;;;;;3.15;1.70;;;17.80;59.20;;;;;;5027548;28;20038;-61
2021/11/23 00:12:45;;;;;;;3.15;1.48;;;17.80;59.10;;;;;;5026606;28;20442;-61
2021/11/23 00:15:11;;;;;;;2.25;1.75;;;17.80;58.80;;;;;;5027942;28;20030;-62
2021/11/23 00:17:36;;;;;;;3.22;1.63;;;17.80;58.70;;;;;;5027565;28;20057;-61
2021/11/23 00:20:03;;;;;;;2.28;1.73;;;17.90;58.60;;;;;;5027142;28;20382;-62
2021/11/23 00:22:31;;;;;;;2.33;1.45;;;17.90;58.60;;;;;;5009699;28;20575;-62
2021/11/23 00:24:57;;;;;;;3.90;1.60;;;17.80;58.50;;;;;;5027426;28;20038;-60
2021/11/23 00:27:22;;;;;;;2.33;1.67;;;17.90;58.40;;;;;;5027093;28;20069;-61
2021/11/23 00:29:48;;;;;;;2.80;1.40;;;17.90;58.90;;;;;;5026999;28;20021;-61
2021/11/23 00:32:13;;;;;;;3.92;1.55;;;17.90;58.10;;;;;;5027263;28;20459;-61
2021/11/23 00:34:39;;;;;;;3.70;1.67;;;17.90;58.10;;;;;;5027287;28;20053;-62
2021/11/23 00:37:04;;;;;;;3.85;1.65;;;17.90;57.90;;;;;;5026873;28;20036;-61
2021/11/23 00:39:30;;;;;;;1.70;1.20;;;17.90;57.90;;;;;;5026830;28;20603;-62
2021/11/23 00:41:55;;;;;;;2.08;1.38;;;17.90;57.90;;;;;;5027436;28;20017;-62
2021/11/23 00:44:21;;;;;;;3.10;1.35;;;17.80;57.90;;;;;;5027112;28;20025;-62
2021/11/23 00:46:47;;;;;;;2.80;1.67;;;17.80;57.90;;;;;;5027570;28;20026;-60
2021/11/23 00:49:13;;;;;;;3.03;1.70;;;17.80;57.80;;;;;;5008397;28;20033;-60
2021/11/23 00:51:39;;;;;;;2.35;1.30;;;17.80;57.80;;;;;;5026456;28;20029;-60
2021/11/23 00:54:04;;;;;;;6.72;1.88;;;17.80;57.80;;;;;;5027112;28;20040;-61
2021/11/23 00:56:30;;;;;;;2.17;1.33;;;17.80;58.40;;;;;;5026756;28;20029;-63
2021/11/23 00:58:55;;;;;;;2.08;1.50;;;17.80;57.80;;;;;;5026556;28;20537;-61
2021/11/23 01:01:21;;;;;;;2.67;1.52;;;17.80;57.70;;;;;;5026410;28;20037;-59
2021/11/23 01:03:46;;;;;;;1.52;1.23;;;17.80;57.60;;;;;;5027100;28;20037;-61
2021/11/23 01:06:12;;;;;;;1.63;1.30;;;17.80;57.60;;;;;;5026566;28;20038;-62
2021/11/23 01:08:39;;;;;;;2.15;1.52;;;17.80;57.50;;;;;;5026433;28;20555;-60
2021/11/23 01:11:06;;;;;;;1.63;1.25;;;17.80;57.50;;;;;;5026593;28;20192;-61
2021/11/23 01:13:31;;;;;;;2.38;1.30;;;17.80;57.50;;;;;;5026938;28;20080;-62
2021/11/23 01:15:56;;;;;;;2.63;1.20;;;17.80;57.30;;;;;;5010997;28;20029;-61
2021/11/23 01:18:22;;;;;;;2.40;1.48;;;17.80;57.30;;;;;;5027603;28;20684;-61
2021/11/23 01:20:48;;;;;;;2.30;1.33;;;17.80;57.30;;;;;;5026681;28;20113;-61
2021/11/23 01:23:13;;;;;;;2.25;1.10;;;17.70;57.20;;;;;;5026326;28;20017;-61
2021/11/23 01:25:39;;;;;;;1.75;1.27;;;17.80;57.30;;;;;;5026121;28;20041;-61
2021/11/23 01:28:04;;;;;;;2.22;1.33;;;17.70;57.10;;;;;;5026300;28;20032;-62
2021/11/23 01:30:30;;;;;;;2.53;1.20;;;17.70;57.10;;;;;;5026104;28;20427;-62
2021/11/23 01:32:55;;;;;;;2.45;1.42;;;17.70;57.10;;;;;;5026524;28;20025;-61
2021/11/23 01:35:21;;;;;;;2.13;1.17;;;17.70;57.10;;;;;;5026620;28;20105;-61
2021/11/23 01:37:46;;;;;;;1.05;0.95;;;17.70;57.10;;;;;;5025875;28;20059;-59
2021/11/23 01:40:12;;;;;;;2.00;1.20;;;17.70;57.10;;;;;;5025918;28;20392;-60
2021/11/23 01:42:38;;;;;;;1.58;1.13;;;17.70;57.10;;;;;;4992451;28;20030;-62
2021/11/23 01:45:04;;;;;;;1.38;1.05;;;17.60;57.10;;;;;;5026239;28;20148;-62
2021/11/23 01:47:29;;;;;;;1.23;1.10;;;17.60;57.00;;;;;;5008700;28;20044;-62
2021/11/23 01:49:55;;;;;;;2.58;1.45;;;17.70;57.00;;;;;;5025360;28;20025;-62
2021/11/23 01:52:20;;;;;;;2.72;1.70;;;17.60;57.00;;;;;;5008615;28;20396;-62
2021/11/23 01:54:46;;;;;;;2.05;1.10;;;17.70;57.00;;;;;;5008151;28;20115;-62
2021/11/23 01:57:11;;;;;;;2.17;1.30;;;17.70;57.00;;;;;;5026048;28;20067;-62
2021/11/23 01:59:37;;;;;;;1.83;1.30;;;17.70;57.00;;;;;;5025141;28;20032;-61
2021/11/23 02:02:02;;;;;;;1.95;1.10;;;17.70;57.70;;;;;;5008199;28;20063;-62
2021/11/23 02:04:28;;;;;;;1.83;1.00;;;17.60;57.10;;;;;;5025529;28;20027;-62
2021/11/23 02:06:53;;;;;;;2.92;1.00;;;17.60;57.20;;;;;;5025372;28;20050;-61
2021/11/23 02:09:19;;;;;;;2.47;1.30;;;17.60;57.30;;;;;;5025463;28;20025;-62
2021/11/23 02:11:44;;;;;;;1.33;1.00;;;17.50;57.50;;;;;;5025670;28;20030;-61
2021/11/23 02:14:10;;;;;;;1.60;1.02;;;17.50;57.50;;;;;;5025769;28;20540;-62
2021/11/23 02:16:36;;;;;;;1.75;1.00;;;17.60;57.50;;;;;;5008254;28;20475;-61
2021/11/23 02:19:01;;;;;;;1.33;1.02;;;17.60;57.40;;;;;;5025256;28;20029;-62
2021/11/23 02:21:27;;;;;;;2.40;1.20;;;17.70;57.30;;;;;;5007440;28;20044;-60
2021/11/23 02:23:52;;;;;;;1.38;1.05;;;17.70;57.30;;;;;;5025270;28;20033;-61
2021/11/23 02:26:18;;;;;;;2.88;1.30;;;17.90;57.30;;;;;;5007264;28;20061;-61
2021/11/23 02:28:43;;;;;;;1.55;1.02;;;17.90;57.00;;;;;;5025679;28;20024;-62
2021/11/23 02:31:09;;;;;;;2.53;1.58;;;18.00;56.90;;;;;;5025403;28;20056;-62
2021/11/23 02:33:35;;;;;;;1.48;1.00;;;18.00;57.40;;;;;;5025812;28;20108;-62
2021/11/23 02:36:02;;;;;;;2.40;1.45;;;18.10;56.80;;;;;;5028243;28;20439;-60
2021/11/23 02:38:27;;;;;;;3.47;1.25;;;18.20;56.80;;;;;;5011823;28;20026;-62
2021/11/23 02:40:53;;;;;;;1.88;1.20;;;18.20;56.70;;;;;;5029897;28;20065;-62
2021/11/23 02:43:19;;;;;;;2.03;1.10;;;18.20;56.70;;;;;;5030639;28;20033;-62
2021/11/23 02:45:44;;;;;;;1.10;0.90;;;18.20;56.70;;;;;;5035199;28;20040;-60
2021/11/23 02:48:11;;;;;;;2.40;1.20;;;18.30;56.70;;;;;;5030315;28;20030;-62
2021/11/23 02:50:37;;;;;;;4.03;1.05;;;18.20;56.60;;;;;;5028895;28;20021;-61
2021/11/23 02:53:03;;;;;;;1.35;1.05;;;18.30;56.60;;;;;;5011553;28;20018;-61
2021/11/23 02:55:31;;;;;;;1.92;1.00;;;18.30;56.60;;;;;;5029787;28;20022;-61
2021/11/23 02:57:57;;;;;;;1.67;1.00;;;18.30;56.60;;;;;;5031197;28;20037;-62
2021/11/23 03:00:24;;;;;;;1.80;1.10;;;18.30;56.50;;;;;;5032022;28;20506;-61
2021/11/23 03:02:50;;;;;;;1.33;0.90;;;18.30;56.40;;;;;;5030539;28;20319;-62
2021/11/23 03:05:16;;;;;;;1.13;0.90;;;18.30;56.40;;;;;;5013123;28;20049;-61
2021/11/23 03:07:42;;;;;;;1.42;1.00;;;18.30;56.40;;;;;;5027625;28;20725;-61
2021/11/23 03:10:08;;;;;;;1.08;0.98;;;18.30;56.20;;;;;;5028840;28;20022;-61
2021/11/23 03:12:34;;;;;;;1.95;1.20;;;18.30;56.20;;;;;;5028682;28;20009;-61
2021/11/23 03:14:59;;;;;;;1.20;0.80;;;18.30;56.20;;;;;;5011530;28;20484;-62
2021/11/23 03:17:25;;;;;;;1.42;1.20;;;18.30;56.00;;;;;;5028662;28;20416;-61
2021/11/23 03:19:51;;;;;;;1.30;1.00;;;18.30;56.00;;;;;;5010081;28;20029;-61
2021/11/23 03:22:16;;;;;;;1.23;1.13;;;18.30;55.90;;;;;;5028485;28;20083;-62
2021/11/23 03:24:42;;;;;;;2.17;0.90;;;18.30;55.80;;;;;;5028639;28;20030;-62
2021/11/23 03:27:08;;;;;;;2.22;1.20;;;18.20;55.70;;;;;;5027721;28;20030;-61
2021/11/23 03:29:34;;;;;;;1.00;0.82;;;18.20;55.40;;;;;;5028304;28;20105;-62
2021/11/23 03:32:00;;;;;;;1.20;1.00;;;18.20;55.30;;;;;;5028790;28;20108;-60
2021/11/23 03:34:26;;;;;;;1.80;1.10;;;18.20;55.30;;;;;;5028481;28;20097;-62
2021/11/23 03:36:51;;;;;;;1.83;0.95;;;18.20;55.20;;;;;;5028728;28;20571;-60
2021/11/23 03:39:17;;;;;;;1.30;1.00;;;18.20;55.00;;;;;;5028241;28;20033;-61
2021/11/23 03:41:43;;;;;;;0.90;0.90;;;18.20;55.00;;;;;;4994086;28;20075;-61
2021/11/23 03:44:08;;;;;;;0.98;0.88;;;18.20;55.00;;;;;;5022143;28;20024;-61
2021/11/23 03:46:34;;;;;;;1.98;1.13;;;18.10;55.00;;;;;;5025372;28;20049;-61
2021/11/23 03:48:59;;;;;;;1.15;0.90;;;18.10;54.80;;;;;;5025400;28;20141;-57
2021/11/23 03:51:25;;;;;;;1.08;0.80;;;18.10;54.80;;;;;;5024392;28;20033;-53
2021/11/23 03:53:51;;;;;;;1.60;0.90;;;18.10;54.80;;;;;;5024958;28;20083;-53
2021/11/23 03:56:16;;;;;;;1.15;0.95;;;18.10;54.80;;;;;;5025405;28;20022;-56
2021/11/23 03:58:42;;;;;;;1.45;1.00;;;18.10;54.80;;;;;;4997594;28;20119;-60
2021/11/23 04:01:08;;;;;;;1.30;0.90;;;18.00;54.80;;;;;;5006440;28;20568;-53
2021/11/23 04:03:34;;;;;;;1.10;1.00;;;18.00;54.80;;;;;;5024834;28;20041;-59
2021/11/23 04:06:00;;;;;;;1.48;0.88;;;18.00;54.90;;;;;;5007435;28;20088;-61
2021/11/23 04:08:25;;;;;;;1.35;0.80;;;18.00;54.90;;;;;;5024724;28;20037;-58
2021/11/23 04:10:51;;;;;;;1.83;0.90;;;18.00;55.00;;;;;;5006345;28;20545;-57
2021/11/23 04:13:18;;;;;;;1.20;1.00;;;17.90;54.90;;;;;;5024948;28;20057;-60
2021/11/23 04:15:44;;;;;;;1.60;1.00;;;17.90;55.00;;;;;;5024518;28;20026;-55
2021/11/23 04:18:10;;;;;;;2.30;1.00;;;17.90;55.00;;;;;;5024299;28;20032;-53
2021/11/23 04:20:35;;;;;;;1.10;0.90;;;17.90;55.00;;;;;;5024132;28;20040;-55
2021/11/23 04:23:01;;;;;;;1.73;1.00;;;17.80;55.00;;;;;;5024047;28;20030;-59
2021/11/23 04:25:26;;;;;;;1.25;0.90;;;17.80;55.00;;;;;;5023728;28;20034;-57
2021/11/23 04:27:52;;;;;;;1.10;0.80;;;17.80;55.00;;;;;;5023957;28;20107;-57
2021/11/23 04:30:18;;;;;;;1.58;0.90;;;17.80;55.00;;;;;;5022768;28;20049;-61
2021/11/23 04:32:43;;;;;;;0.90;0.90;;;17.70;55.10;;;;;;5030566;23;20073;-60
2021/11/23 04:35:09;;;;;;;1.25;0.90;;;17.70;55.20;;;;;;5001630;28;20493;-60
2021/11/23 04:37:35;;;;;;;1.10;0.85;;;17.70;55.20;;;;;;5019923;28;20030;-60
2021/11/23 04:40:01;;;;;;;1.25;0.98;;;17.80;55.30;;;;;;5002240;28;20192;-57
2021/11/23 04:42:26;;;;;;;1.38;0.90;;;17.70;55.30;;;;;;5021180;28;20033;-53
2021/11/23 04:44:52;;;;;;;2.08;1.17;;;17.70;55.50;;;;;;5021616;28;20030;-59
2021/11/23 04:47:17;;;;;;;1.23;1.10;;;17.70;55.60;;;;;;5019356;28;20036;-58
2021/11/23 04:49:43;;;;;;;2.15;0.85;;;17.80;55.80;;;;;;5022357;28;20060;-54
2021/11/23 04:52:08;;;;;;;1.48;1.10;;;17.80;55.70;;;;;;5004382;28;20029;-54
2021/11/23 04:54:34;;;;;;;2.60;0.80;;;17.90;55.60;;;;;;5023105;28;20026;-55
2021/11/23 04:56:59;;;;;;;0.80;0.70;;;18.00;55.60;;;;;;5021133;28;20030;-59
2021/11/23 04:59:25;;;;;;;1.60;0.80;;;18.10;55.50;;;;;;5003076;28;20017;-51
2021/11/23 05:01:50;;;;;;;1.00;0.77;;;18.10;55.50;;;;;;5019398;28;20495;-52
2021/11/23 05:04:16;;;;;;;1.20;0.55;;;18.20;55.70;;;;;;5020170;28;20172;-57
2021/11/23 05:06:41;;;;;;;1.15;0.90;;;18.20;55.60;;;;;;5019751;28;20026;-54
2021/11/23 05:09:07;;;;;;;1.02;0.75;;;18.20;55.60;;;;;;5002175;28;20750;-56
2021/11/23 05:11:35;;;;;;;2.28;0.75;;;18.20;55.70;;;;;;5020316;28;20103;-53
2021/11/23 05:14:01;;;;;;;1.27;0.90;;;18.20;55.70;;;;;;5020446;28;20505;-50
2021/11/23 05:16:27;;;;;;;2.50;0.80;;;18.30;55.80;;;;;;5020221;28;20034;-57
2021/11/23 05:18:52;;;;;;;1.33;0.80;;;18.20;55.70;;;;;;5002295;28;20552;-54
2021/11/23 05:21:18;;;;;;;1.00;0.60;;;18.30;55.70;;;;;;5020641;28;20033;-56
2021/11/23 05:23:43;;;;;;;1.02;0.80;;;18.30;55.70;;;;;;5021096;28;20033;-57
2021/11/23 05:26:09;;;;;;;1.00;0.70;;;18.30;55.70;;;;;;5020360;28;20029;-60
2021/11/23 05:28:34;;;;;;;0.82;0.60;;;18.30;55.70;;;;;;5017889;28;20267;-55
2021/11/23 05:31:00;;;;;;;1.17;0.70;;;18.30;55.70;;;;;;5018895;28;20068;-56
2021/11/23 05:33:25;;;;;;;2.08;0.82;;;18.20;55.80;;;;;;5017977;28;20033;-57
2021/11/23 05:35:51;;;;;;;3.08;0.77;;;18.20;55.60;;;;;;5003749;28;20030;-58
2021/11/23 05:38:18;;;;;;;1.80;0.80;;;18.20;55.50;;;;;;5003316;28;20550;-59
2021/11/23 05:40:44;;;;;;;1.95;0.70;;;18.20;55.40;;;;;;5002800;28;20491;-60
2021/11/23 05:43:11;;;;;;;1.33;0.80;;;18.20;55.50;;;;;;5020700;28;20042;-57
2021/11/23 05:45:36;;;;;;;1.48;0.82;;;18.20;55.20;;;;;;5020458;28;20114;-56
2021/11/23 05:48:01;;;;;;;1.75;0.90;;;18.20;55.20;;;;;;5020694;28;20119;-60
2021/11/23 05:50:27;;;;;;;1.02;0.80;;;18.20;55.10;;;;;;4999470;28;20521;-58
2021/11/23 05:52:53;;;;;;;1.45;0.93;;;18.10;55.00;;;;;;5021277;28;20030;-60
2021/11/23 05:55:18;;;;;;;1.02;0.93;;;18.10;55.10;;;;;;5021375;28;20132;-58
2021/11/23 05:57:44;;;;;;;0.88;0.80;;;18.10;55.10;;;;;;5020501;28;20099;-57
2021/11/23 06:00:10;;;;;;;1.58;0.80;;;18.10;54.80;;;;;;5018811;28;20057;-58
2021/11/23 06:02:35;;;;;;;1.20;0.90;;;18.10;54.80;;;;;;5000345;28;20526;-58
2021/11/23 06:05:02;;;;;;;1.25;0.90;;;18.10;54.60;;;;;;5009995;28;20037;-58
2021/11/23 06:07:28;;;;;;;1.30;0.90;;;18.10;54.50;;;;;;5012097;28;20490;-57
2021/11/23 06:09:54;;;;;;;2.08;1.00;;;18.10;54.40;;;;;;5017486;28;20036;-59
2021/11/23 06:12:19;;;;;;;1.27;0.88;;;18.10;54.40;;;;;;5020725;28;20021;-58
2021/11/23 06:14:45;;;;;;;1.92;1.20;;;18.10;54.40;;;;;;5020020;28;20084;-59
2021/11/23 06:17:11;;;;;;;1.20;0.85;;;18.00;54.50;;;;;;5020281;28;20018;-57
2021/11/23 06:19:37;;;;;;;1.67;1.05;;;18.00;54.50;;;;;;5018340;28;20100;-56
2021/11/23 06:22:03;;;;;;;2.28;1.08;;;18.00;54.60;;;;;;5013894;28;20120;-55
2021/11/23 06:24:29;;;;;;;1.50;1.00;;;18.00;55.20;;;;;;4999668;28;20100;-59
2021/11/23 06:26:54;;;;;;;3.72;1.08;;;17.90;54.90;;;;;;4984472;28;20038;-60
2021/11/23 06:29:20;;;;;;;2.85;1.33;;;17.90;54.90;;;;;;5020028;28;20021;-56
2021/11/23 06:31:45;;;;;;;5.55;2.72;;;17.90;55.00;;;;;;5004122;28;20453;-57
2021/11/23 06:34:11;;;;;;;3.80;2.70;;;17.90;55.10;;;;;;5020312;28;20053;-56
2021/11/23 06:36:36;;;;;;;8.40;2.65;;;17.90;55.20;;;;;;5007989;28;20033;-56
2021/11/23 06:39:05;;;;;;;4.45;2.47;;;17.90;56.40;;;;;;5017175;28;20065;-57
2021/11/23 06:41:31;;;;;;;6.45;2.42;;;17.90;56.80;;;;;;4985624;28;20030;-60
2021/11/23 06:43:57;;;;;;;9.20;2.33;;;17.90;57.00;;;;;;5019191;28;20529;-57
2021/11/23 06:46:23;;;;;;;4.57;2.50;;;17.90;57.10;;;;;;5020057;28;20171;-58
2021/11/23 06:48:49;;;;;;;6.53;2.13;;;17.90;57.10;;;;;;5019500;28;20437;-60
2021/11/23 06:51:15;;;;;;;6.15;2.33;;;17.90;57.30;;;;;;5001226;28;20109;-56
2021/11/23 06:53:40;;;;;;;7.22;2.03;;;17.80;57.30;;;;;;5018880;28;20517;-58
2021/11/23 06:56:06;;;;;;;5.72;1.80;;;17.80;57.40;;;;;;5018936;28;20188;-60
2021/11/23 06:58:31;;;;;;;4.95;2.17;;;17.80;57.50;;;;;;5017446;28;20078;-60
2021/11/23 07:00:57;;;;;;;8.20;1.85;;;17.80;57.50;;;;;;5019655;28;20037;-55
2021/11/23 07:03:22;;;;;;;3.08;1.60;;;17.80;57.50;;;;;;5002458;28;20112;-57
2021/11/23 07:05:48;;;;;;;1.48;1.30;;;17.70;57.50;;;;;;5002790;28;20683;-55
2021/11/23 07:08:13;;;;;;;4.05;1.90;;;17.70;57.60;;;;;;5019565;28;20068;-56
2021/11/23 07:10:39;;;;;;;2.72;1.88;;;17.70;57.60;;;;;;5002203;28;20034;-57
2021/11/23 07:13:04;;;;;;;7.00;2.00;;;17.70;57.60;;;;;;5019623;28;20126;-60
2021/11/23 07:15:30;;;;;;;5.22;2.67;;;17.70;57.50;;;;;;5020138;28;20410;-56
2021/11/23 07:17:55;;;;;;;7.03;3.08;;;17.70;57.50;;;;;;5021137;28;20068;-58
2021/11/23 07:20:21;;;;;;;6.70;2.92;;;17.70;57.50;;;;;;5017480;28;20271;-59
2021/11/23 07:22:47;;;;;;;8.23;3.05;;;17.70;57.50;;;;;;5038145;28;20061;-60
2021/11/23 07:25:12;;;;;;;6.45;2.85;;;17.70;57.40;;;;;;5025559;28;20104;-57
2021/11/23 07:27:38;;;;;;;4.97;2.85;;;17.70;57.30;;;;;;5027899;28;20124;-58
2021/11/23 07:30:04;;;;;;;6.00;2.67;;;17.70;57.50;;;;;;5021536;28;20048;-59
2021/11/23 07:32:29;;;;;;;6.45;3.22;;;17.70;57.70;;;;;;5006208;28;20064;-58
2021/11/23 07:34:55;;;;;;;7.30;2.85;;;17.70;57.70;;;;;;5024041;28;20045;-59
2021/11/23 07:37:20;;;;;;;4.82;2.58;;;17.70;57.60;;;;;;5021789;28;20076;-65
2021/11/23 07:39:47;;;;;;;6.53;2.83;;;17.60;57.50;;;;;;5007764;28;20329;-57
2021/11/23 07:42:13;;;;;;;8.80;3.08;;;17.60;57.50;;;;;;5029017;28;20560;-57
2021/11/23 07:44:38;;;;;;;21.17;5.40;;;17.60;57.60;;;;;;5013845;28;20025;-57
2021/11/23 07:47:04;;;;;;;7.60;3.17;;;17.60;57.70;;;;;;5005399;28;20341;-56
2021/11/23 07:49:29;;;;;;;7.18;3.08;;;17.60;57.80;;;;;;5023265;28;20029;-57
2021/11/23 07:51:55;;;;;;;9.23;2.45;;;17.60;57.90;;;;;;5023841;28;20037;-58
2021/11/23 07:54:20;;;;;;;8.63;2.47;;;17.60;57.90;;;;;;5022923;28;20033;-59
2021/11/23 07:56:46;;;;;;;6.97;2.63;;;17.60;57.90;;;;;;5023495;28;20519;-56
2021/11/23 07:59:12;;;;;;;8.40;2.58;;;17.50;57.90;;;;;;5023431;28;20072;-56
2021/11/23 08:01:38;;;;;;;10.95;2.72;;;17.50;57.80;;;;;;5023652;28;20076;-56
2021/11/23 08:04:04;;;;;;;7.57;2.33;;;17.50;57.90;;;;;;5003322;28;20053;-58
2021/11/23 08:06:29;;;;;;;9.73;3.78;;;17.50;57.80;;;;;;5023868;28;20034;-58
2021/11/23 08:08:55;;;;;;;9.95;3.95;;;17.50;58.00;;;;;;5022811;28;20037;-58
2021/11/23 08:11:21;;;;;;;8.32;3.92;;;17.50;58.10;;;;;;5005961;28;20037;-57
2021/11/23 08:13:46;;;;;;;8.23;3.47;;;17.50;58.20;;;;;;5022531;28;20159;-58
2021/11/23 08:16:12;;;;;;;8.77;4.00;;;17.50;58.30;;;;;;4989533;28;20087;-58
2021/11/23 08:18:37;;;;;;;11.07;4.22;;;17.50;58.40;;;;;;5023476;28;20029;-59
2021/11/23 08:21:03;;;;;;;11.05;4.03;;;17.50;58.30;;;;;;5022332;28;20035;-57
2021/11/23 08:23:29;;;;;;;9.10;3.67;;;17.50;58.50;;;;;;5021764;28;20033;-60
2021/11/23 08:25:54;;;;;;;8.85;3.90;;;17.50;58.60;;;;;;5021699;28;20107;-65
2021/11/23 08:28:23;;;;;;;7.55;4.13;;;17.50;58.70;;;;;;5005551;28;20402;-59
2021/11/23 08:30:49;;;;;;;11.77;4.28;;;17.50;58.80;;;;;;5005219;28;20033;-59
2021/11/23 08:33:14;;;;;;;6.55;3.42;;;17.50;58.70;;;;;;5004494;28;20045;-57
2021/11/23 08:35:40;;;;;;;5.95;3.40;;;17.50;58.70;;;;;;5022520;28;20037;-57
2021/11/23 08:38:05;;;;;;;9.65;3.70;;;17.50;58.60;;;;;;5022147;28;20030;-56
2021/11/23 08:40:31;;;;;;;7.38;4.20;;;17.50;58.50;;;;;;5019945;28;20602;-60
2021/11/23 08:42:58;;;;;;;7.50;3.42;;;17.60;58.50;;;;;;5021839;28;20034;-59
2021/11/23 08:45:24;;;;;;;9.38;3.80;;;17.60;58.40;;;;;;5022470;28;20519;-56
2021/11/23 08:47:49;;;;;;;7.63;3.80;;;17.70;58.30;;;;;;5005327;28;20033;-58
2021/11/23 08:50:15;;;;;;;10.52;3.67;;;17.70;58.00;;;;;;5022556;28;20030;-59
2021/11/23 08:52:40;;;;;;;6.43;2.95;;;17.70;58.00;;;;;;5021651;28;20059;-59
2021/11/23 08:55:06;;;;;;;9.98;3.38;;;17.70;58.10;;;;;;5023431;28;20070;-55
2021/11/23 08:57:32;;;;;;;15.02;3.97;;;17.70;58.10;;;;;;5022811;28;20115;-58
2021/11/23 09:00:15;;;;;;;7.28;3.42;;;17.70;58.00;;;;;;5005285;28;20728;-60
2021/11/23 09:02:42;;;;;;;7.22;3.30;;;17.70;57.90;;;;;;5023017;28;20749;-59
2021/11/23 09:05:10;;;;;;;6.82;3.30;;;17.70;57.80;;;;;;5021969;28;20065;-57
2021/11/23 09:07:36;;;;;;;6.05;2.92;;;17.80;57.80;;;;;;5022732;28;20438;-58
2021/11/23 09:10:02;;;;;;;6.25;2.63;;;17.90;57.70;;;;;;5022290;28;20037;-55
2021/11/23 09:12:27;;;;;;;5.63;2.92;;;17.90;57.50;;;;;;5022646;28;20399;-57
2021/11/23 09:14:53;;;;;;;6.10;2.95;;;17.90;57.60;;;;;;5022433;28;20038;-57
2021/11/23 09:17:18;;;;;;;4.57;2.90;;;17.90;57.40;;;;;;5004867;28;20203;-58
2021/11/23 09:19:44;;;;;;;3.88;2.63;;;17.90;57.40;;;;;;5020492;28;20115;-60
2021/11/23 09:22:10;;;;;;;4.68;2.67;;;17.90;57.40;;;;;;5022051;28;20775;-59
2021/11/23 09:24:35;;;;;;;6.40;2.85;;;17.90;57.50;;;;;;5020270;28;20022;-58
2021/11/23 09:27:01;;;;;;;5.40;2.70;;;17.90;57.60;;;;;;5020907;28;20183;-57
2021/11/23 09:29:26;;;;;;;4.80;2.53;;;17.90;57.60;;;;;;5021497;28;20231;-62
2021/11/23 09:31:52;;;;;;;7.35;3.10;;;17.90;58.10;;;;;;5022073;28;20158;-59
2021/11/23 09:34:20;;;;;;;4.82;2.95;;;18.00;57.60;;;;;;5021769;28;20028;-59
2021/11/23 09:36:45;;;;;;;4.82;2.90;;;18.00;57.50;;;;;;5004378;28;20095;-57
2021/11/23 09:39:11;;;;;;;5.25;2.50;;;18.00;57.60;;;;;;5021269;28;20107;-60
2021/11/23 09:41:37;;;;;;;5.32;2.72;;;18.00;57.50;;;;;;5021380;28;20113;-60
2021/11/23 09:44:04;;;;;;;4.25;2.58;;;18.00;57.50;;;;;;5003383;28;20521;-58
2021/11/23 09:46:37;;;;;;;3.45;2.38;;;18.00;57.40;;;;;;5021153;28;20033;-55
2021/11/23 09:49:02;;;;;;;5.03;2.42;;;18.00;57.40;;;;;;5004235;28;20037;-55
2021/11/23 09:51:29;;;;;;;3.95;2.20;;;18.00;57.50;;;;;;5021084;28;20100;-53
2021/11/23 09:53:55;;;;;;;5.70;2.40;;;18.00;57.50;;;;;;5021803;28;20121;-55
2021/11/23 09:56:21;;;;;;;4.00;2.03;;;18.00;57.50;;;;;;5017092;28;20774;-53
2021/11/23 09:58:53;;;;;;;2.90;2.10;;;18.00;57.50;;;;;;5017490;28;20180;-59
2021/11/23 10:01:19;;;;;;;4.28;2.65;;;18.00;57.50;;;;;;4994392;28;20041;-61
2021/11/23 10:03:44;;;;;;;3.60;2.30;;;18.00;57.60;;;;;;4996249;28;20040;-55
2021/11/23 10:06:11;;;;;;;3.97;2.33;;;18.00;57.50;;;;;;5001253;28;20037;-57
2021/11/23 10:08:38;;;;;;;3.15;2.15;;;18.00;57.60;;;;;;5008529;28;20037;-62
2021/11/23 10:11:03;;;;;;;5.32;2.08;;;18.00;57.60;;;;;;5020176;28;20584;-56
2021/11/23 10:13:44;;;;;;;4.25;2.00;;;18.00;57.50;;;;;;5007621;28;20033;-56
2021/11/23 10:16:09;;;;;;;4.50;2.38;;;18.00;57.60;;;;;;4995206;28;20037;-57
2021/11/23 10:18:35;;;;;;;4.10;2.05;;;18.00;57.60;;;;;;4981692;28;20026;-56
2021/11/23 10:21:02;;;;;;;3.20;1.90;;;18.00;57.60;;;;;;5002882;28;20028;-58
2021/11/23 10:23:43;;;;;;;4.07;1.88;;;18.00;57.60;;;;;;5009749;28;20041;-59
2021/11/23 10:26:19;;;;;;;3.38;1.88;;;17.90;57.60;;;;;;5011326;28;20090;-57
2021/11/23 10:29:03;;;;;;;2.67;1.77;;;18.00;57.60;;;;;;5003674;28;20033;-57
2021/11/23 10:34:10;;;;;;;2.85;1.80;;;17.90;57.60;;;;;;4999292;28;20037;-60
2021/11/23 10:36:44;;;;;;;2.30;1.60;;;17.90;57.50;;;;;;4983892;28;20070;-60
2021/11/23 10:39:13;;;;;;;2.20;1.25;;;18.00;57.60;;;;;;5013202;28;20418;-61
2021/11/23 10:41:39;;;;;;;2.13;1.40;;;17.90;57.50;;;;;;5019552;28;20025;-60
2021/11/23 10:44:14;;;;;;;2.33;1.58;;;17.90;57.50;;;;;;5035223;28;20112;-59
2021/11/23 10:46:39;;;;;;;2.50;1.80;;;17.90;57.50;;;;;;5002520;28;20030;-61
2021/11/23 10:49:05;;;;;;;2.88;1.60;;;17.90;57.60;;;;;;4999554;28;20273;-60
2021/11/23 10:51:37;;;;;;;4.18;1.50;;;17.90;57.70;;;;;;5000843;28;20034;-59
2021/11/23 10:54:13;;;;;;;3.10;1.55;;;17.80;58.30;;;;;;5002683;28;20057;-60
2021/11/23 10:57:06;;;;;;;3.40;1.95;;;17.80;57.80;;;;;;5001297;28;20037;-59
2021/11/23 10:59:37;;;;;;;2.83;1.65;;;17.80;57.80;;;;;;5004395;28;20434;-60
2021/11/23 11:02:02;;;;;;;2.00;1.25;;;17.80;57.90;;;;;;5002329;28;20399;-61
2021/11/23 11:04:28;;;;;;;2.42;1.63;;;17.80;57.90;;;;;;4994471;28;20052;-61
2021/11/23 11:06:54;;;;;;;2.55;1.45;;;17.80;57.90;;;;;;5002605;28;20088;-60
2021/11/23 11:09:20;;;;;;;2.85;1.83;;;17.80;57.90;;;;;;4985479;28;20037;-60
2021/11/23 11:11:46;;;;;;;3.30;1.42;;;17.80;57.70;;;;;;5004353;28;20454;-59
2021/11/23 11:14:12;;;;;;;5.53;1.90;;;17.80;57.50;;;;;;5004799;28;20046;-59
2021/11/23 11:16:38;;;;;;;2.35;1.17;;;17.80;57.30;;;;;;5003579;28;20442;-58
2021/11/23 11:19:07;;;;;;;2.97;2.08;;;17.80;57.40;;;;;;5002907;28;20834;-59
2021/11/23 11:21:55;;;;;;;5.10;2.00;;;17.80;57.50;;;;;;5005073;28;20062;-60
2021/11/23 11:24:36;;;;;;;3.83;1.92;;;17.90;57.60;;;;;;4988534;28;20056;-61
2021/11/23 11:27:12;;;;;;;3.42;2.00;;;17.80;57.50;;;;;;5003530;28;20026;-62
2021/11/23 11:29:38;;;;;;;3.53;2.08;;;17.80;57.50;;;;;;5002294;28;20068;-62
2021/11/23 11:32:04;;;;;;;2.80;2.00;;;17.90;57.50;;;;;;5003820;28;20042;-60
2021/11/23 11:34:31;;;;;;;2.67;1.80;;;17.90;57.30;;;;;;5003384;28;20041;-56
2021/11/23 11:37:16;;;;;;;2.40;1.50;;;17.90;57.30;;;;;;5004101;28;20494;-59
2021/11/23 11:39:43;;;;;;;;;;;17.90;57.20;;;;;;5004638;28;20072;-59
2021/11/23 11:42:28;;;;;;;2.72;1.60;;;17.90;57.20;;;;;;5003352;28;19916;-62
2021/11/23 11:44:54;;;;;;;4.72;1.60;;;17.90;57.20;;;;;;5000882;28;20140;-60
2021/11/23 11:47:33;;;;;;;2.67;1.45;;;17.90;57.30;;;;;;5001718;28;20503;-59
2021/11/23 11:50:03;;;;;;;3.28;1.70;;;17.80;57.20;;;;;;5002796;28;20220;-62
2021/11/23 11:52:31;;;;;;;2.13;1.60;;;17.80;57.40;;;;;;5003190;28;20759;-59
2021/11/23 11:55:12;;;;;;;2.10;1.17;;;17.70;57.50;;;;;;5004205;28;20034;-60
2021/11/23 11:57:42;;;;;;;2.65;1.60;;;17.70;57.70;;;;;;5003375;28;20100;-58
2021/11/23 12:00:23;;;;;;;2.05;1.40;;;17.70;57.80;;;;;;4995321;28;20037;-60
2021/11/23 12:02:49;;;;;;;2.97;1.88;;;17.60;57.80;;;;;;4999509;28;20022;-61
2021/11/23 12:05:15;;;;;;;3.47;1.85;;;17.70;58.00;;;;;;5002417;28;20022;-59
2021/11/23 12:07:42;;;;;;;3.38;1.90;;;17.70;58.00;;;;;;5001327;28;20022;-59
2021/11/23 12:10:22;;;;;;;3.33;1.42;;;17.60;58.00;;;;;;5002389;28;20600;-60
2021/11/23 12:12:57;;;;;;;1.73;1.50;;;17.60;58.10;;;;;;5001540;28;20076;-56
2021/11/23 12:15:44;;;;;;;2.70;1.60;;;17.60;58.20;;;;;;5000077;28;20442;-57
2021/11/23 12:18:17;;;;;;;2.65;1.48;;;17.60;58.20;;;;;;4999150;28;20523;-59
2021/11/23 12:21:01;;;;;;;2.65;1.60;;;17.60;58.20;;;;;;5002259;28;20715;-59
2021/11/23 12:23:39;;;;;;;3.58;1.70;;;17.60;58.30;;;;;;4995635;28;20026;-58
2021/11/23 12:26:15;;;;;;;3.20;2.10;;;17.60;58.30;;;;;;4999881;28;20026;-60
2021/11/23 12:28:54;;;;;;;2.25;1.38;;;17.60;58.30;;;;;;5001088;28;20042;-58
2021/11/23 12:31:20;;;;;;;2.50;1.70;;;17.60;59.00;;;;;;5001387;28;20367;-61
2021/11/23 12:33:50;;;;;;;2.13;1.55;;;17.60;58.40;;;;;;5000424;28;20042;-60
2021/11/23 12:36:18;;;;;;;2.05;1.45;;;17.60;58.30;;;;;;5000771;28;20022;-60
2021/11/23 12:38:45;;;;;;;3.17;1.48;;;17.60;58.30;;;;;;5003465;28;20042;-56
2021/11/23 12:41:22;;;;;;;2.42;1.40;;;17.60;58.20;;;;;;5003765;28;20120;-60
2021/11/23 12:43:48;;;;;;;2.38;1.35;;;17.60;58.20;;;;;;5000959;28;20030;-59
2021/11/23 12:46:19;;;;;;;3.70;1.90;;;17.60;58.10;;;;;;5005372;28;20040;-58
2021/11/23 12:48:45;;;;;;;2.55;1.45;;;17.70;58.10;;;;;;5002330;28;20034;-60